sensor_id;sensor_type;location;lat;lon;timestamp;P1;durP1;ratioP1;P2;durP2;ratioP2
35128;SDS011;21301;43.626;10.580;2022-11-15T00:01:52;27.35;;;14.68;;
35128;SDS011;21301;43.626;10.580;2022-11-15T00:04:36;31.33;;;17.02;;
35128;SDS011;21301;43.626;10.580;2022-11-15T00:07:20;32.75;;;18.38;;
35128;SDS011;21301;43.626;10.580;2022-11-15T00:12:48;24.23;;;13.02;;
35128;SDS011;21301;43.626;10.580;2022-11-15T00:18:20;22.17;;;13.65;;
35128;SDS011;21301;43.626;10.580;2022-11-15T00:21:05;30.77;;;16.30;;
35128;SDS011;21301;43.626;10.580;2022-11-15T00:23:51;31.63;;;16.33;;
35128;SDS011;21301;43.626;10.580;2022-11-15T00:26:35;24.35;;;15.30;;
35128;SDS011;21301;43.626;10.580;2022-11-15T00:29:19;32.60;;;17.65;;
35128;SDS011;21301;43.626;10.580;2022-11-15T00:32:04;28.25;;;17.50;;
35128;SDS011;21301;43.626;10.580;2022-11-15T00:34:48;27.80;;;15.25;;
35128;SDS011;21301;43.626;10.580;2022-11-15T00:40:17;32.22;;;16.60;;
35128;SDS011;21301;43.626;10.580;2022-11-15T00:43:01;26.52;;;16.25;;
35128;SDS011;21301;43.626;10.580;2022-11-15T00:48:29;24.48;;;13.25;;
35128;SDS011;21301;43.626;10.580;2022-11-15T00:51:13;23.55;;;14.55;;
35128;SDS011;21301;43.626;10.580;2022-11-15T00:53:57;27.45;;;15.23;;
35128;SDS011;21301;43.626;10.580;2022-11-15T00:56:42;24.40;;;15.88;;
35128;SDS011;21301;43.626;10.580;2022-11-15T00:59:26;20.95;;;14.25;;
35128;SDS011;21301;43.626;10.580;2022-11-15T01:02:10;22.02;;;13.10;;
35128;SDS011;21301;43.626;10.580;2022-11-15T01:04:55;21.98;;;14.65;;
35128;SDS011;21301;43.626;10.580;2022-11-15T01:07:39;24.83;;;16.08;;
35128;SDS011;21301;43.626;10.580;2022-11-15T01:10:24;25.73;;;16.08;;
35128;SDS011;21301;43.626;10.580;2022-11-15T01:13:09;25.13;;;14.63;;
35128;SDS011;21301;43.626;10.580;2022-11-15T01:15:54;28.73;;;15.88;;
35128;SDS011;21301;43.626;10.580;2022-11-15T01:18:38;23.58;;;14.32;;
35128;SDS011;21301;43.626;10.580;2022-11-15T01:21:24;20.85;;;13.27;;
35128;SDS011;21301;43.626;10.580;2022-11-15T01:24:11;24.55;;;14.55;;
35128;SDS011;21301;43.626;10.580;2022-11-15T01:26:56;24.15;;;13.38;;
35128;SDS011;21301;43.626;10.580;2022-11-15T01:29:40;21.85;;;14.48;;
35128;SDS011;21301;43.626;10.580;2022-11-15T01:35:09;22.48;;;13.40;;
35128;SDS011;21301;43.626;10.580;2022-11-15T01:37:53;20.58;;;12.07;;
35128;SDS011;21301;43.626;10.580;2022-11-15T01:40:37;22.13;;;12.93;;
35128;SDS011;21301;43.626;10.580;2022-11-15T01:43:25;23.88;;;12.68;;
35128;SDS011;21301;43.626;10.580;2022-11-15T01:49:06;22.75;;;13.60;;
35128;SDS011;21301;43.626;10.580;2022-11-15T01:52:03;23.65;;;13.43;;
35128;SDS011;21301;43.626;10.580;2022-11-15T01:54:53;22.55;;;13.43;;
35128;SDS011;21301;43.626;10.580;2022-11-15T01:57:49;24.90;;;13.77;;
35128;SDS011;21301;43.626;10.580;2022-11-15T02:00:36;22.08;;;14.30;;
35128;SDS011;21301;43.626;10.580;2022-11-15T02:03:21;21.02;;;12.38;;
35128;SDS011;21301;43.626;10.580;2022-11-15T02:06:10;20.40;;;13.63;;
35128;SDS011;21301;43.626;10.580;2022-11-15T02:08:55;18.80;;;10.15;;
35128;SDS011;21301;43.626;10.580;2022-11-15T02:11:40;20.70;;;12.27;;
35128;SDS011;21301;43.626;10.580;2022-11-15T02:14:26;24.40;;;12.73;;
35128;SDS011;21301;43.626;10.580;2022-11-15T02:26:52;19.85;;;12.32;;
35128;SDS011;21301;43.626;10.580;2022-11-15T02:32:41;20.38;;;13.95;;
35128;SDS011;21301;43.626;10.580;2022-11-15T02:35:50;22.30;;;13.40;;
35128;SDS011;21301;43.626;10.580;2022-11-15T02:38:59;21.20;;;13.27;;
35128;SDS011;21301;43.626;10.580;2022-11-15T02:41:54;19.92;;;12.20;;
35128;SDS011;21301;43.626;10.580;2022-11-15T02:44:45;21.95;;;13.25;;
35128;SDS011;21301;43.626;10.580;2022-11-15T02:47:32;19.48;;;12.35;;
35128;SDS011;21301;43.626;10.580;2022-11-15T02:50:24;22.65;;;12.27;;
35128;SDS011;21301;43.626;10.580;2022-11-15T02:53:10;18.42;;;11.55;;
35128;SDS011;21301;43.626;10.580;2022-11-15T03:10:51;27.05;;;14.60;;
35128;SDS011;21301;43.626;10.580;2022-11-15T03:13:58;25.45;;;14.32;;
35128;SDS011;21301;43.626;10.580;2022-11-15T03:20:11;23.75;;;12.43;;
35128;SDS011;21301;43.626;10.580;2022-11-15T03:22:59;23.88;;;12.98;;
35128;SDS011;21301;43.626;10.580;2022-11-15T03:25:48;27.75;;;14.70;;
35128;SDS011;21301;43.626;10.580;2022-11-15T03:28:39;24.88;;;14.48;;
35128;SDS011;21301;43.626;10.580;2022-11-15T03:31:31;19.40;;;12.13;;
35128;SDS011;21301;43.626;10.580;2022-11-15T03:37:44;26.83;;;13.50;;
35128;SDS011;21301;43.626;10.580;2022-11-15T03:40:42;21.42;;;12.82;;
35128;SDS011;21301;43.626;10.580;2022-11-15T03:43:35;22.38;;;12.88;;
35128;SDS011;21301;43.626;10.580;2022-11-15T03:49:19;19.77;;;12.40;;
35128;SDS011;21301;43.626;10.580;2022-11-15T03:52:09;25.02;;;14.27;;
35128;SDS011;21301;43.626;10.580;2022-11-15T03:54:55;35.40;;;12.60;;
35128;SDS011;21301;43.626;10.580;2022-11-15T03:57:40;21.63;;;12.07;;
35128;SDS011;21301;43.626;10.580;2022-11-15T04:00:24;20.00;;;11.95;;
35128;SDS011;21301;43.626;10.580;2022-11-15T04:03:09;26.85;;;12.23;;
35128;SDS011;21301;43.626;10.580;2022-11-15T04:05:54;18.48;;;10.30;;
35128;SDS011;21301;43.626;10.580;2022-11-15T04:08:38;23.10;;;11.68;;
35128;SDS011;21301;43.626;10.580;2022-11-15T04:11:23;18.92;;;10.70;;
35128;SDS011;21301;43.626;10.580;2022-11-15T04:14:07;21.90;;;12.18;;
35128;SDS011;21301;43.626;10.580;2022-11-15T04:16:51;18.88;;;12.13;;
35128;SDS011;21301;43.626;10.580;2022-11-15T04:19:36;20.60;;;11.98;;
35128;SDS011;21301;43.626;10.580;2022-11-15T04:22:39;26.65;;;13.10;;
35128;SDS011;21301;43.626;10.580;2022-11-15T04:25:42;22.98;;;12.75;;
35128;SDS011;21301;43.626;10.580;2022-11-15T04:28:28;21.48;;;11.43;;
35128;SDS011;21301;43.626;10.580;2022-11-15T04:31:12;20.10;;;12.18;;
35128;SDS011;21301;43.626;10.580;2022-11-15T04:33:57;29.60;;;14.02;;
35128;SDS011;21301;43.626;10.580;2022-11-15T04:36:42;21.35;;;12.80;;
35128;SDS011;21301;43.626;10.580;2022-11-15T04:39:45;21.10;;;13.07;;
35128;SDS011;21301;43.626;10.580;2022-11-15T04:42:30;20.35;;;12.13;;
35128;SDS011;21301;43.626;10.580;2022-11-15T04:45:14;20.67;;;12.93;;
35128;SDS011;21301;43.626;10.580;2022-11-15T04:47:59;18.55;;;11.80;;
35128;SDS011;21301;43.626;10.580;2022-11-15T04:50:44;21.92;;;11.40;;
35128;SDS011;21301;43.626;10.580;2022-11-15T04:53:28;20.20;;;11.95;;
35128;SDS011;21301;43.626;10.580;2022-11-15T04:58:56;20.23;;;11.32;;
35128;SDS011;21301;43.626;10.580;2022-11-15T05:04:25;18.17;;;11.82;;
35128;SDS011;21301;43.626;10.580;2022-11-15T05:07:09;20.08;;;11.63;;
35128;SDS011;21301;43.626;10.580;2022-11-15T05:09:54;23.05;;;12.30;;
35128;SDS011;21301;43.626;10.580;2022-11-15T05:12:39;21.95;;;11.55;;
35128;SDS011;21301;43.626;10.580;2022-11-15T05:15:23;23.67;;;11.68;;
35128;SDS011;21301;43.626;10.580;2022-11-15T05:18:08;21.15;;;11.40;;
35128;SDS011;21301;43.626;10.580;2022-11-15T05:20:52;19.40;;;11.27;;
35128;SDS011;21301;43.626;10.580;2022-11-15T05:26:21;22.73;;;10.80;;
35128;SDS011;21301;43.626;10.580;2022-11-15T05:31:49;16.10;;;10.20;;
35128;SDS011;21301;43.626;10.580;2022-11-15T05:34:33;16.95;;;10.55;;
35128;SDS011;21301;43.626;10.580;2022-11-15T05:37:18;15.63;;;10.45;;
35128;SDS011;21301;43.626;10.580;2022-11-15T05:40:03;18.60;;;10.65;;
35128;SDS011;21301;43.626;10.580;2022-11-15T05:42:48;17.60;;;9.85;;
35128;SDS011;21301;43.626;10.580;2022-11-15T05:45:33;19.13;;;9.20;;
35128;SDS011;21301;43.626;10.580;2022-11-15T05:48:18;17.98;;;10.00;;
35128;SDS011;21301;43.626;10.580;2022-11-15T05:51:03;15.98;;;9.73;;
35128;SDS011;21301;43.626;10.580;2022-11-15T05:53:50;17.60;;;10.50;;
35128;SDS011;21301;43.626;10.580;2022-11-15T05:56:36;17.88;;;10.07;;
35128;SDS011;21301;43.626;10.580;2022-11-15T05:59:21;20.17;;;8.75;;
35128;SDS011;21301;43.626;10.580;2022-11-15T06:02:05;16.83;;;8.98;;
35128;SDS011;21301;43.626;10.580;2022-11-15T06:04:50;17.55;;;10.27;;
35128;SDS011;21301;43.626;10.580;2022-11-15T06:10:22;19.27;;;10.45;;
35128;SDS011;21301;43.626;10.580;2022-11-15T06:15:50;17.58;;;9.32;;
35128;SDS011;21301;43.626;10.580;2022-11-15T06:18:34;26.08;;;14.80;;
35128;SDS011;21301;43.626;10.580;2022-11-15T06:21:19;19.83;;;12.07;;
35128;SDS011;21301;43.626;10.580;2022-11-15T06:24:04;22.63;;;12.20;;
35128;SDS011;21301;43.626;10.580;2022-11-15T06:26:49;27.20;;;14.15;;
35128;SDS011;21301;43.626;10.580;2022-11-15T06:29:34;25.67;;;12.88;;
35128;SDS011;21301;43.626;10.580;2022-11-15T06:32:18;30.00;;;14.30;;
35128;SDS011;21301;43.626;10.580;2022-11-15T06:35:02;28.15;;;14.80;;
35128;SDS011;21301;43.626;10.580;2022-11-15T06:37:46;24.60;;;13.02;;
35128;SDS011;21301;43.626;10.580;2022-11-15T06:40:32;22.70;;;11.65;;
35128;SDS011;21301;43.626;10.580;2022-11-15T06:43:18;23.02;;;11.25;;
35128;SDS011;21301;43.626;10.580;2022-11-15T06:46:03;19.98;;;12.13;;
35128;SDS011;21301;43.626;10.580;2022-11-15T06:48:50;21.10;;;11.02;;
35128;SDS011;21301;43.626;10.580;2022-11-15T06:51:35;16.25;;;8.80;;
35128;SDS011;21301;43.626;10.580;2022-11-15T06:54:19;18.00;;;10.80;;
35128;SDS011;21301;43.626;10.580;2022-11-15T06:57:04;22.38;;;12.30;;
35128;SDS011;21301;43.626;10.580;2022-11-15T06:59:49;24.15;;;12.35;;
35128;SDS011;21301;43.626;10.580;2022-11-15T07:05:17;17.20;;;9.90;;
35128;SDS011;21301;43.626;10.580;2022-11-15T07:10:45;19.38;;;11.85;;
35128;SDS011;21301;43.626;10.580;2022-11-15T07:16:16;20.92;;;9.75;;
35128;SDS011;21301;43.626;10.580;2022-11-15T07:19:00;18.63;;;10.73;;
35128;SDS011;21301;43.626;10.580;2022-11-15T07:21:45;31.48;;;21.45;;
35128;SDS011;21301;43.626;10.580;2022-11-15T07:24:30;19.55;;;11.10;;
35128;SDS011;21301;43.626;10.580;2022-11-15T07:27:14;17.77;;;12.00;;
35128;SDS011;21301;43.626;10.580;2022-11-15T07:29:59;16.80;;;10.35;;
35128;SDS011;21301;43.626;10.580;2022-11-15T07:32:43;16.30;;;9.55;;
35128;SDS011;21301;43.626;10.580;2022-11-15T07:35:28;18.13;;;10.60;;
35128;SDS011;21301;43.626;10.580;2022-11-15T07:38:13;18.48;;;10.18;;
35128;SDS011;21301;43.626;10.580;2022-11-15T07:40:59;17.55;;;9.93;;
35128;SDS011;21301;43.626;10.580;2022-11-15T07:43:45;16.73;;;10.48;;
35128;SDS011;21301;43.626;10.580;2022-11-15T07:46:29;17.38;;;8.98;;
35128;SDS011;21301;43.626;10.580;2022-11-15T07:49:14;17.02;;;10.15;;
35128;SDS011;21301;43.626;10.580;2022-11-15T07:51:58;15.40;;;8.38;;
35128;SDS011;21301;43.626;10.580;2022-11-15T07:54:42;15.43;;;8.98;;
35128;SDS011;21301;43.626;10.580;2022-11-15T07:57:26;16.48;;;10.05;;
35128;SDS011;21301;43.626;10.580;2022-11-15T08:00:11;18.45;;;9.25;;
35128;SDS011;21301;43.626;10.580;2022-11-15T08:03:06;12.73;;;7.00;;
35128;SDS011;21301;43.626;10.580;2022-11-15T08:05:51;14.30;;;8.57;;
35128;SDS011;21301;43.626;10.580;2022-11-15T08:08:36;16.80;;;9.55;;
35128;SDS011;21301;43.626;10.580;2022-11-15T08:11:20;16.20;;;10.48;;
35128;SDS011;21301;43.626;10.580;2022-11-15T08:14:04;15.63;;;9.35;;
35128;SDS011;21301;43.626;10.580;2022-11-15T08:16:48;16.90;;;10.25;;
35128;SDS011;21301;43.626;10.580;2022-11-15T08:19:33;17.23;;;10.05;;
35128;SDS011;21301;43.626;10.580;2022-11-15T08:22:17;18.23;;;9.68;;
35128;SDS011;21301;43.626;10.580;2022-11-15T08:25:02;23.48;;;13.02;;
35128;SDS011;21301;43.626;10.580;2022-11-15T08:27:46;21.70;;;11.82;;
35128;SDS011;21301;43.626;10.580;2022-11-15T08:30:34;18.85;;;10.68;;
35128;SDS011;21301;43.626;10.580;2022-11-15T08:33:21;20.40;;;9.25;;
35128;SDS011;21301;43.626;10.580;2022-11-15T08:36:06;18.08;;;10.00;;
35128;SDS011;21301;43.626;10.580;2022-11-15T08:38:55;17.75;;;9.68;;
35128;SDS011;21301;43.626;10.580;2022-11-15T08:41:39;17.85;;;10.63;;
35128;SDS011;21301;43.626;10.580;2022-11-15T08:47:10;18.77;;;12.25;;
35128;SDS011;21301;43.626;10.580;2022-11-15T08:49:56;18.10;;;10.95;;
